Time;durP1;ratioP1;P1;durP2;ratioP2;P2;SDS_P1;SDS_P2;PMS_P1;PMS_P2;Temp;Humidity;BMP_temperature;BMP_pressure;BME280_temperature;BME280_humidity;BME280_pressure;Samples;Min_cycle;Max_cycle;Signal;HPM_P1;HPM_P2
2022/07/20 00:00:48;;;;;;;;;;;20.00;57.70;;;;;;5050421;28;20408;-81
2022/07/20 00:03:13;;;;;;;;;;;20.00;57.60;;;;;;5033613;28;19913;-81
2022/07/20 00:05:40;;;;;;;;;;;20.10;57.50;;;;;;5033582;28;19924;-82
2022/07/20 00:08:07;;;;;;;;;;;20.00;57.40;;;;;;5050157;28;19916;-81
2022/07/20 00:13:17;;;;;;;;;;;20.00;57.50;;;;;;5051686;28;20170;-82
2022/07/20 00:15:43;;;;;;;;;;;20.00;57.50;;;;;;5049953;28;19909;-82
2022/07/20 00:18:09;;;;;;;;;;;20.00;57.50;;;;;;5050107;28;20332;-82
2022/07/20 00:20:35;;;;;;;;;;;20.10;57.40;;;;;;5049993;28;19909;-82
2022/07/20 00:23:01;;;;;;;;;;;20.00;57.20;;;;;;5033442;28;19917;-82
2022/07/20 00:25:27;;;;;;;;;;;20.00;57.20;;;;;;5049750;28;20015;-81
2022/07/20 00:27:53;;;;;;;;;;;20.10;57.30;;;;;;5049763;28;19927;-81
2022/07/20 00:30:19;;;;;;;;;;;20.00;57.50;;;;;;5049946;28;19912;-82
2022/07/20 00:32:44;;;;;;;;;;;20.00;57.40;;;;;;5049676;28;20381;-82
2022/07/20 00:35:11;;;;;;;;;;;20.00;57.40;;;;;;5068636;28;20280;-81
2022/07/20 00:37:37;;;;;;;;;;;20.10;57.40;;;;;;5052865;28;20344;-82
2022/07/20 00:40:04;;;;;;;;;;;20.00;57.40;;;;;;5052861;28;19934;-81
2022/07/20 00:42:30;;;;;;;;;;;20.10;57.40;;;;;;5070786;28;19915;-81
2022/07/20 00:44:55;;;;;;;;;;;20.00;57.30;;;;;;5070765;28;19909;-81
2022/07/20 00:47:21;;;;;;;;;;;20.00;57.20;;;;;;5052907;28;19924;-81
2022/07/20 00:49:46;;;;;;;;;;;20.00;57.30;;;;;;5052833;28;20470;-82
2022/07/20 00:52:12;;;;;;;;;;;19.80;57.10;;;;;;5052542;28;19935;-81
2022/07/20 00:54:39;;;;;;;;;;;19.70;57.50;;;;;;5052514;28;19913;-81
2022/07/20 00:57:04;;;;;;;;;;;19.60;57.80;;;;;;5070546;28;19908;-81
2022/07/20 00:59:30;;;;;;;;;;;19.60;57.80;;;;;;5052581;28;19919;-81
2022/07/20 01:01:56;;;;;;;;;;;19.70;57.70;;;;;;5035825;28;19920;-81
2022/07/20 01:04:22;;;;;;;;;;;19.70;57.60;;;;;;5070482;28;19912;-81
2022/07/20 01:06:48;;;;;;;;;;;19.70;57.50;;;;;;5035306;28;19951;-81
2022/07/20 01:09:16;;;;;;;;;;;19.70;57.40;;;;;;5070316;28;19935;-81
2022/07/20 01:11:42;;;;;;;;;;;19.70;57.30;;;;;;5052252;28;19916;-81
2022/07/20 01:14:08;;;;;;;;;;;19.70;57.30;;;;;;5052294;28;19916;-80
2022/07/20 01:16:34;;;;;;;;;;;19.70;57.40;;;;;;5035827;28;20343;-81
2022/07/20 01:19:00;;;;;;;;;;;19.70;57.40;;;;;;5036195;28;19969;-82
2022/07/20 01:21:25;;;;;;;;;;;19.70;57.40;;;;;;5052038;28;19913;-81
2022/07/20 01:23:51;;;;;;;;;;;19.70;57.40;;;;;;5052199;28;19908;-81
2022/07/20 01:26:17;;;;;;;;;;;19.70;57.30;;;;;;5035615;28;19916;-81
2022/07/20 01:28:43;;;;;;;;;;;19.70;57.30;;;;;;5051945;28;20364;-81
2022/07/20 01:31:09;;;;;;;;;;;19.70;57.30;;;;;;5051894;28;19927;-81
2022/07/20 01:33:35;;;;;;;;;;;19.80;57.30;;;;;;5035074;28;19926;-82
2022/07/20 01:36:00;;;;;;;;;;;19.80;57.40;;;;;;5069882;28;19920;-81
2022/07/20 01:38:26;;;;;;;;;;;19.70;57.40;;;;;;5051805;28;19908;-81
2022/07/20 01:40:51;;;;;;;;;;;19.70;57.50;;;;;;5035110;28;19917;-81
2022/07/20 01:43:17;;;;;;;;;;;19.70;57.50;;;;;;5051780;28;19958;-81
2022/07/20 01:45:43;;;;;;;;;;;19.70;57.40;;;;;;5051736;28;19912;-81
2022/07/20 01:48:08;;;;;;;;;;;19.70;57.40;;;;;;5035001;28;20430;-81
2022/07/20 01:50:34;;;;;;;;;;;19.70;57.50;;;;;;5035043;28;20327;-81
2022/07/20 01:53:00;;;;;;;;;;;19.70;57.40;;;;;;5051401;28;19962;-81
2022/07/20 01:55:25;;;;;;;;;;;19.70;57.30;;;;;;5051324;28;19981;-81
2022/07/20 01:57:51;;;;;;;;;;;19.60;57.20;;;;;;5034844;28;19913;-81
2022/07/20 02:00:17;;;;;;;;;;;19.60;57.30;;;;;;5034861;28;20018;-81
2022/07/20 02:02:42;;;;;;;;;;;19.60;57.30;;;;;;5034880;28;19913;-81
2022/07/20 02:05:08;;;;;;;;;;;19.50;57.30;;;;;;5034698;28;19939;-81
2022/07/20 02:07:34;;;;;;;;;;;19.60;57.50;;;;;;5051541;28;20336;-81
2022/07/20 02:10:00;;;;;;;;;;;19.50;57.40;;;;;;5034851;28;19926;-81
2022/07/20 02:12:25;;;;;;;;;;;19.50;57.40;;;;;;5051136;28;19999;-81
2022/07/20 02:14:51;;;;;;;;;;;19.60;57.50;;;;;;5051050;28;19988;-81
2022/07/20 02:17:16;;;;;;;;;;;19.60;57.40;;;;;;5050948;28;19923;-81
2022/07/20 02:19:42;;;;;;;;;;;19.60;57.30;;;;;;5050476;28;19912;-81
2022/07/20 02:22:08;;;;;;;;;;;19.60;57.30;;;;;;5034297;28;19912;-81
2022/07/20 02:24:33;;;;;;;;;;;19.40;57.30;;;;;;5050968;28;20368;-81
2022/07/20 02:26:59;;;;;;;;;;;19.30;57.70;;;;;;5034258;28;20121;-81
2022/07/20 02:29:25;;;;;;;;;;;19.20;57.80;;;;;;5050847;28;19917;-81
2022/07/20 02:31:50;;;;;;;;;;;19.30;57.80;;;;;;5034225;28;20382;-81
2022/07/20 02:34:16;;;;;;;;;;;19.30;57.60;;;;;;5050591;28;19985;-81
2022/07/20 02:36:41;;;;;;;;;;;19.30;57.50;;;;;;5050714;28;20292;-81
2022/07/20 02:39:07;;;;;;;;;;;19.30;57.50;;;;;;5034067;28;19961;-81
2022/07/20 02:41:34;;;;;;;;;;;19.30;57.50;;;;;;5034319;28;19931;-81
2022/07/20 02:44:00;;;;;;;;;;;19.30;57.40;;;;;;5051134;28;19917;-81
2022/07/20 02:46:26;;;;;;;;;;;19.30;57.40;;;;;;5050608;28;19919;-81
2022/07/20 02:48:51;;;;;;;;;;;19.20;57.40;;;;;;5050531;28;20141;-81
2022/07/20 02:51:17;;;;;;;;;;;19.20;57.40;;;;;;5033845;28;19917;-81
2022/07/20 02:53:42;;;;;;;;;;;19.20;57.50;;;;;;5033810;28;19942;-81
2022/07/20 02:56:08;;;;;;;;;;;19.20;57.40;;;;;;5068343;28;19920;-81
2022/07/20 02:58:34;;;;;;;;;;;19.20;57.40;;;;;;5033825;28;20423;-81
2022/07/20 03:00:59;;;;;;;;;;;19.30;57.40;;;;;;5050367;28;19956;-81
2022/07/20 03:03:25;;;;;;;;;;;19.20;57.30;;;;;;5050235;28;19920;-81
2022/07/20 03:05:51;;;;;;;;;;;19.20;57.30;;;;;;5033675;28;19962;-81
2022/07/20 03:08:16;;;;;;;;;;;19.20;57.40;;;;;;5050505;28;19944;-81
2022/07/20 03:10:42;;;;;;;;;;;19.20;57.40;;;;;;5050032;28;20372;-81
2022/07/20 03:13:08;;;;;;;;;;;19.30;57.40;;;;;;5050216;28;19913;-81
2022/07/20 03:15:33;;;;;;;;;;;19.30;57.30;;;;;;5033362;28;19966;-81
2022/07/20 03:17:59;;;;;;;;;;;19.30;57.30;;;;;;5050208;28;19967;-80
2022/07/20 03:20:26;;;;;;;;;;;19.30;57.40;;;;;;5033348;28;19913;-81
2022/07/20 03:22:52;;;;;;;;;;;19.20;57.40;;;;;;5050028;28;19908;-81
2022/07/20 03:25:18;;;;;;;;;;;19.10;57.40;;;;;;5068227;28;19970;-81
2022/07/20 03:27:44;;;;;;;;;;;19.20;57.40;;;;;;5033470;28;20130;-81
2022/07/20 03:30:10;;;;;;;;;;;19.10;57.30;;;;;;5033153;28;19920;-81
2022/07/20 03:32:36;;;;;;;;;;;19.00;57.40;;;;;;5067947;28;19908;-81
2022/07/20 03:35:01;;;;;;;;;;;19.00;57.70;;;;;;5049605;28;20273;-81
2022/07/20 03:37:27;;;;;;;;;;;19.10;57.70;;;;;;5049837;28;20340;-81
2022/07/20 03:39:52;;;;;;;;;;;19.10;58.20;;;;;;5049774;28;19909;-81
2022/07/20 03:42:18;;;;;;;;;;;19.20;57.60;;;;;;5067652;28;20352;-81
2022/07/20 03:44:44;;;;;;;;;;;19.20;57.50;;;;;;5033198;28;19997;-81
2022/07/20 03:47:09;;;;;;;;;;;19.30;57.40;;;;;;5049728;28;19927;-80
2022/07/20 03:49:35;;;;;;;;;;;19.30;57.30;;;;;;5049763;28;19909;-81
2022/07/20 03:52:01;;;;;;;;;;;19.30;57.20;;;;;;5033067;28;20314;-81
2022/07/20 03:54:26;;;;;;;;;;;19.30;57.20;;;;;;5049646;28;19919;-81
2022/07/20 03:56:52;;;;;;;;;;;19.20;57.30;;;;;;5033195;28;20291;-81
2022/07/20 03:59:17;;;;;;;;;;;19.20;57.20;;;;;;5067794;28;19912;-81
2022/07/20 04:01:43;;;;;;;;;;;19.10;57.20;;;;;;5049378;28;20283;-81
2022/07/20 04:04:09;;;;;;;;;;;19.00;57.30;;;;;;5049441;28;19955;-80
2022/07/20 04:06:35;;;;;;;;;;;18.90;57.60;;;;;;5067523;28;20092;-81
2022/07/20 04:09:01;;;;;;;;;;;18.90;57.80;;;;;;5067359;28;19909;-80
2022/07/20 04:11:26;;;;;;;;;;;18.80;57.90;;;;;;5032871;28;19919;-81
2022/07/20 04:13:52;;;;;;;;;;;18.70;57.90;;;;;;5049486;28;20288;-80
2022/07/20 04:16:18;;;;;;;;;;;18.70;58.10;;;;;;5049429;28;20357;-81
2022/07/20 04:18:44;;;;;;;;;;;18.60;58.10;;;;;;5049365;28;20357;-81
2022/07/20 04:21:09;;;;;;;;;;;18.50;58.20;;;;;;5032707;28;19928;-81
2022/07/20 04:23:35;;;;;;;;;;;18.50;58.40;;;;;;5049416;28;19996;-80
2022/07/20 04:26:00;;;;;;;;;;;18.50;58.30;;;;;;5032867;28;19956;-81
2022/07/20 04:28:26;;;;;;;;;;;18.60;58.20;;;;;;5049495;28;19926;-81
2022/07/20 04:30:51;;;;;;;;;;;18.70;58.10;;;;;;5049342;28;20326;-81
2022/07/20 04:33:18;;;;;;;;;;;18.80;58.00;;;;;;5032680;28;19923;-81
2022/07/20 04:35:44;;;;;;;;;;;18.80;57.70;;;;;;5049438;28;20296;-81
2022/07/20 04:38:13;;;;;;;;;;;18.80;57.70;;;;;;5049258;28;20144;-81
2022/07/20 04:40:39;;;;;;;;;;;18.70;57.70;;;;;;5067219;28;19916;-81
2022/07/20 04:43:05;;;;;;;;;;;18.60;57.80;;;;;;5052562;28;19909;-81
2022/07/20 04:45:30;;;;;;;;;;;18.60;58.00;;;;;;5052935;28;19924;-81
2022/07/20 04:47:56;;;;;;;;;;;18.50;58.10;;;;;;5036235;28;19966;-81
2022/07/20 04:50:21;;;;;;;;;;;18.60;58.10;;;;;;5035729;28;20368;-81
2022/07/20 04:52:47;;;;;;;;;;;18.70;58.00;;;;;;5036079;28;19966;-81
2022/07/20 04:55:12;;;;;;;;;;;18.70;57.80;;;;;;5035924;28;19920;-81
2022/07/20 04:57:38;;;;;;;;;;;18.80;57.70;;;;;;5052641;28;20372;-81
2022/07/20 05:00:04;;;;;;;;;;;18.90;57.60;;;;;;5052621;28;19919;-81
2022/07/20 05:02:30;;;;;;;;;;;18.90;57.50;;;;;;5070342;28;19917;-81
2022/07/20 05:04:55;;;;;;;;;;;18.90;57.40;;;;;;5035874;28;19912;-81
2022/07/20 05:07:21;;;;;;;;;;;19.00;57.40;;;;;;5070447;28;19962;-81
2022/07/20 05:09:46;;;;;;;;;;;18.90;57.30;;;;;;5052602;28;20265;-80
2022/07/20 05:12:12;;;;;;;;;;;18.90;57.30;;;;;;5035600;28;19916;-81
2022/07/20 05:14:38;;;;;;;;;;;18.90;57.30;;;;;;5052329;28;19947;-80
2022/07/20 05:17:03;;;;;;;;;;;18.80;57.30;;;;;;5052319;28;19909;-81
2022/07/20 05:19:29;;;;;;;;;;;18.80;57.40;;;;;;5070299;28;20197;-80
2022/07/20 05:21:56;;;;;;;;;;;18.80;57.30;;;;;;5035675;28;20058;-81
2022/07/20 05:24:22;;;;;;;;;;;18.70;57.30;;;;;;5035954;28;20330;-80
2022/07/20 05:26:47;;;;;;;;;;;18.70;57.30;;;;;;5052003;28;19908;-81
2022/07/20 05:29:13;;;;;;;;;;;18.70;57.40;;;;;;5052015;28;20342;-81
2022/07/20 05:31:38;;;;;;;;;;;18.70;57.30;;;;;;5035113;28;19913;-81
2022/07/20 05:34:04;;;;;;;;;;;18.70;57.30;;;;;;5031719;28;19925;-81
2022/07/20 05:36:29;;;;;;;;;;;18.70;57.20;;;;;;5048666;28;19920;-78
2022/07/20 05:38:55;;;;;;;;;;;18.70;57.30;;;;;;5050347;28;19919;-80
2022/07/20 05:41:21;;;;;;;;;;;18.70;57.30;;;;;;5048404;28;19963;-81
2022/07/20 05:43:46;;;;;;;;;;;18.80;57.40;;;;;;5049821;28;19920;-80
2022/07/20 05:46:12;;;;;;;;;;;18.90;58.00;;;;;;5048668;28;20365;-80
2022/07/20 05:48:37;;;;;;;;;;;18.90;57.40;;;;;;5032000;28;19939;-81
2022/07/20 05:51:03;;;;;;;;;;;18.90;57.40;;;;;;5031503;28;20024;-80
2022/07/20 05:53:28;;;;;;;;;;;19.00;57.40;;;;;;5049536;28;19912;-80
2022/07/20 05:55:54;;;;;;;;;;;19.00;57.40;;;;;;5048487;28;19920;-80
2022/07/20 05:58:20;;;;;;;;;;;19.00;57.40;;;;;;5048196;28;19917;-80
2022/07/20 06:00:45;;;;;;;;;;;19.00;57.30;;;;;;5031321;28;19917;-80
2022/07/20 06:03:11;;;;;;;;;;;19.00;57.30;;;;;;5031382;28;19912;-81
2022/07/20 06:05:36;;;;;;;;;;;19.00;57.40;;;;;;5047909;28;19923;-81
2022/07/20 06:08:03;;;;;;;;;;;19.10;57.40;;;;;;5031303;28;20035;-81
2022/07/20 06:10:30;;;;;;;;;;;19.10;57.30;;;;;;5047914;28;20268;-80
2022/07/20 06:12:55;;;;;;;;;;;19.10;57.40;;;;;;5047799;28;19998;-81
2022/07/20 06:15:22;;;;;;;;;;;19.10;57.40;;;;;;5049086;28;20359;-81
2022/07/20 06:17:48;;;;;;;;;;;19.10;57.40;;;;;;5049075;28;19913;-81
2022/07/20 06:20:14;;;;;;;;;;;19.00;57.60;;;;;;5048798;28;19995;-81
2022/07/20 06:22:41;;;;;;;;;;;18.90;57.80;;;;;;5047619;28;19909;-74
2022/07/20 06:25:08;;;;;;;;;;;18.80;57.90;;;;;;5048953;28;19962;-80
2022/07/20 06:27:33;;;;;;;;;;;18.90;58.00;;;;;;5047708;28;19909;-81
2022/07/20 06:29:59;;;;;;;;;;;19.00;57.90;;;;;;5047426;28;20024;-81
2022/07/20 06:32:25;;;;;;;;;;;19.10;57.80;;;;;;5046991;28;20281;-81
2022/07/20 06:34:51;;;;;;;;;;;19.10;57.70;;;;;;5047139;28;20264;-80
2022/07/20 06:37:16;;;;;;;;;;;19.10;57.60;;;;;;5049207;28;19909;-80
2022/07/20 06:39:42;;;;;;;;;;;19.00;57.60;;;;;;5031089;28;20357;-81
2022/07/20 06:42:07;;;;;;;;;;;18.90;57.70;;;;;;5048472;28;19913;-81
2022/07/20 06:44:33;;;;;;;;;;;18.70;57.80;;;;;;5048742;28;20350;-80
2022/07/20 06:46:59;;;;;;;;;;;18.60;58.10;;;;;;5030433;28;19917;-81
2022/07/20 06:49:25;;;;;;;;;;;18.60;58.30;;;;;;5047013;28;19919;-81
2022/07/20 06:51:51;;;;;;;;;;;18.60;58.20;;;;;;5046854;28;19954;-81
2022/07/20 06:54:16;;;;;;;;;;;18.60;58.30;;;;;;5030566;28;20353;-81
2022/07/20 06:56:42;;;;;;;;;;;18.70;58.20;;;;;;5047010;28;19924;-80
2022/07/20 06:59:07;;;;;;;;;;;18.90;58.20;;;;;;5046813;28;20004;-80
2022/07/20 07:01:33;;;;;;;;;;;19.00;58.00;;;;;;5030063;28;19987;-80
2022/07/20 07:03:58;;;;;;;;;;;19.10;57.80;;;;;;5047779;28;20242;-81
2022/07/20 07:06:27;;;;;;;;;;;19.20;57.80;;;;;;5046905;28;19920;-81
2022/07/20 07:08:53;;;;;;;;;;;19.20;57.90;;;;;;5046957;28;19913;-81
2022/07/20 07:11:19;;;;;;;;;;;19.20;57.90;;;;;;5046795;28;19909;-81
2022/07/20 07:13:44;;;;;;;;;;;19.10;58.00;;;;;;5029745;28;19939;-81
2022/07/20 07:16:10;;;;;;;;;;;19.00;58.00;;;;;;5030204;28;19917;-80
2022/07/20 07:18:35;;;;;;;;;;;18.90;58.10;;;;;;5047104;28;19946;-81
2022/07/20 07:21:01;;;;;;;;;;;18.80;58.20;;;;;;5029817;28;20444;-81
2022/07/20 07:23:26;;;;;;;;;;;18.70;58.30;;;;;;5046575;28;19970;-80
2022/07/20 07:25:52;;;;;;;;;;;18.80;58.50;;;;;;5029878;28;19927;-81
2022/07/20 07:28:19;;;;;;;;;;;19.10;58.70;;;;;;5046674;28;19919;-81
2022/07/20 07:30:44;;;;;;;;;;;19.60;58.40;;;;;;5029902;28;19920;-81
2022/07/20 07:33:10;;;;;;;;;;;20.40;58.20;;;;;;5031115;28;19913;-80
2022/07/20 07:35:35;;;;;;;;;;;21.00;57.40;;;;;;5050131;28;20304;-81
2022/07/20 07:38:01;;;;;;;;;;;21.40;57.00;;;;;;5033040;28;19963;-81
2022/07/20 07:40:26;;;;;;;;;;;21.60;56.70;;;;;;5049675;28;19912;-81
2022/07/20 07:42:52;;;;;;;;;;;21.50;56.70;;;;;;5033317;28;19913;-82
2022/07/20 07:45:18;;;;;;;;;;;21.30;56.90;;;;;;5050161;28;19912;-82
2022/07/20 07:47:46;;;;;;;;;;;21.10;57.30;;;;;;5049378;28;19948;-81
2022/07/20 07:50:12;;;;;;;;;;;21.20;57.50;;;;;;5035658;28;19924;-81
2022/07/20 07:52:37;;;;;;;;;;;21.20;57.40;;;;;;5033565;28;20217;-82
2022/07/20 07:55:03;;;;;;;;;;;21.20;57.20;;;;;;5049481;28;19913;-81
2022/07/20 07:57:29;;;;;;;;;;;21.20;57.10;;;;;;5067749;28;20394;-82
2022/07/20 07:59:54;;;;;;;;;;;21.10;57.10;;;;;;5034762;28;20318;-82
2022/07/20 08:02:20;;;;;;;;;;;21.00;57.20;;;;;;5049478;28;19978;-81
2022/07/20 08:04:45;;;;;;;;;;;20.90;57.30;;;;;;5032861;28;19925;-81
2022/07/20 08:07:11;;;;;;;;;;;21.00;57.50;;;;;;5049421;28;19912;-81
2022/07/20 08:09:37;;;;;;;;;;;20.90;57.70;;;;;;5033348;28;20348;-81
2022/07/20 08:12:03;;;;;;;;;;;20.80;57.70;;;;;;5067889;28;19912;-81
2022/07/20 08:14:29;;;;;;;;;;;20.90;57.70;;;;;;5049772;28;19920;-80
2022/07/20 08:16:54;;;;;;;;;;;21.00;57.80;;;;;;5050852;28;19912;-81
2022/07/20 08:19:20;;;;;;;;;;;21.00;57.70;;;;;;5053499;28;19916;-81
2022/07/20 08:21:45;;;;;;;;;;;21.00;57.70;;;;;;5053318;28;19913;-80
2022/07/20 08:24:14;;;;;;;;;;;20.90;57.70;;;;;;5036241;28;19912;-78
2022/07/20 08:26:39;;;;;;;;;;;20.90;57.60;;;;;;5071265;28;20204;-79
2022/07/20 08:29:05;;;;;;;;;;;20.80;57.70;;;;;;5052942;28;20367;-79
2022/07/20 08:31:31;;;;;;;;;;;20.80;57.70;;;;;;5070615;28;19913;-79
2022/07/20 08:33:56;;;;;;;;;;;20.90;57.60;;;;;;5049522;28;19928;-78
2022/07/20 08:36:22;;;;;;;;;;;20.90;57.60;;;;;;5050134;28;19920;-81
2022/07/20 08:38:47;;;;;;;;;;;20.90;57.70;;;;;;5032560;28;20013;-81
2022/07/20 08:41:14;;;;;;;;;;;20.90;57.70;;;;;;5053925;28;19921;-82
2022/07/20 08:43:39;;;;;;;;;;;21.00;57.70;;;;;;5050666;28;19919;-82
2022/07/20 08:46:05;;;;;;;;;;;21.00;57.50;;;;;;5033477;28;19916;-81
2022/07/20 08:48:34;;;;;;;;;;;21.00;57.50;;;;;;5033098;28;19949;-82
2022/07/20 08:50:59;;;;;;;;;;;21.10;57.50;;;;;;5049600;28;20368;-81
2022/07/20 08:53:25;;;;;;;;;;;21.10;57.50;;;;;;5033095;28;19943;-81
2022/07/20 08:55:50;;;;;;;;;;;21.20;57.50;;;;;;5032359;28;19945;-82
2022/07/20 08:58:16;;;;;;;;;;;21.30;57.50;;;;;;5049873;28;19913;-81
2022/07/20 09:00:41;;;;;;;;;;;21.30;57.40;;;;;;5049094;28;19952;-81
2022/07/20 09:03:08;;;;;;;;;;;21.30;57.50;;;;;;5032413;28;20027;-81
2022/07/20 09:05:35;;;;;;;;;;;21.30;57.60;;;;;;5048650;28;19913;-81
2022/07/20 09:08:01;;;;;;;;;;;21.40;57.70;;;;;;5047560;28;19913;-82
2022/07/20 09:10:26;;;;;;;;;;;21.60;57.70;;;;;;5031734;28;19909;-81
2022/07/20 09:13:00;;;;;;;;;;;21.80;57.50;;;;;;5030808;28;19915;-79
2022/07/20 09:15:30;;;;;;;;;;;22.00;57.40;;;;;;5031054;28;20372;-80
2022/07/20 09:18:02;;;;;;;;;;;22.00;57.30;;;;;;5034880;28;20357;-80
2022/07/20 09:20:29;;;;;;;;;;;21.90;57.50;;;;;;5031102;28;20004;-81
2022/07/20 09:22:59;;;;;;;;;;;21.80;57.50;;;;;;5042096;28;20292;-80
2022/07/20 09:25:24;;;;;;;;;;;21.80;57.40;;;;;;5050861;28;19914;-79
2022/07/20 09:27:50;;;;;;;;;;;21.60;57.50;;;;;;5033279;28;19920;-80
2022/07/20 09:30:16;;;;;;;;;;;21.50;57.70;;;;;;5050178;28;20067;-80
2022/07/20 09:32:50;;;;;;;;;;;21.50;57.60;;;;;;5050709;28;20040;-80
2022/07/20 09:35:16;;;;;;;;;;;21.60;57.60;;;;;;5050418;28;20281;-81
2022/07/20 09:37:41;;;;;;;;;;;21.70;57.50;;;;;;5050460;28;19928;-80
2022/07/20 09:40:07;;;;;;;;;;;21.60;57.60;;;;;;5051696;28;19919;-80
2022/07/20 09:42:37;;;;;;;;;;;21.70;57.80;;;;;;5034008;28;19936;-80
2022/07/20 09:45:21;;;;;;;;;;;21.80;58.30;;;;;;5051645;28;19922;-80
2022/07/20 09:48:02;;;;;;;;;;;22.00;58.10;;;;;;5050206;28;19962;-80
2022/07/20 09:50:29;;;;;;;;;;;22.20;57.90;;;;;;5049699;28;19915;-80
2022/07/20 09:52:55;;;;;;;;;;;22.40;57.70;;;;;;5050056;28;19966;-81
2022/07/20 09:55:22;;;;;;;;;;;22.40;57.40;;;;;;5044052;28;19917;-80
2022/07/20 09:57:49;;;;;;;;;;;22.30;57.40;;;;;;5030070;28;19920;-80
2022/07/20 10:00:15;;;;;;;;;;;22.40;57.40;;;;;;5031349;28;19909;-81
2022/07/20 10:02:41;;;;;;;;;;;22.40;57.30;;;;;;5028866;28;19963;-80
2022/07/20 10:05:07;;;;;;;;;;;22.50;57.30;;;;;;5028781;28;20397;-80
2022/07/20 10:07:33;;;;;;;;;;;22.50;57.20;;;;;;5013148;28;19920;-81
2022/07/20 10:09:59;;;;;;;;;;;22.50;57.20;;;;;;5029314;28;19909;-80
2022/07/20 10:12:25;;;;;;;;;;;22.60;57.30;;;;;;5029606;28;20509;-78
2022/07/20 10:14:52;;;;;;;;;;;22.60;57.30;;;;;;5029500;28;19914;-78
2022/07/20 10:17:17;;;;;;;;;;;22.70;57.30;;;;;;5030073;28;19929;-79
2022/07/20 10:19:46;;;;;;;;;;;22.70;57.40;;;;;;5013158;28;20475;-79
2022/07/20 10:22:12;;;;;;;;;;;22.70;57.40;;;;;;5030679;28;19910;-79
2022/07/20 10:24:39;;;;;;;;;;;22.70;57.70;;;;;;5029443;28;19918;-79
2022/07/20 10:27:07;;;;;;;;;;;22.60;57.80;;;;;;5030688;28;19909;-80
2022/07/20 10:29:37;;;;;;;;;;;22.70;58.00;;;;;;5029465;28;19909;-81
2022/07/20 10:32:08;;;;;;;;;;;22.90;57.80;;;;;;5030434;28;19920;-79
2022/07/20 10:34:34;;;;;;;;;;;23.00;57.60;;;;;;5029634;28;19921;-80
2022/07/20 10:37:18;;;;;;;;;;;23.20;57.50;;;;;;5029264;28;20004;-81
2022/07/20 10:39:45;;;;;;;;;;;23.30;57.30;;;;;;5028541;28;20307;-80
2022/07/20 10:42:23;;;;;;;;;;;23.20;57.40;;;;;;5030674;28;19920;-80
2022/07/20 10:44:49;;;;;;;;;;;23.20;57.40;;;;;;5031927;28;19909;-79
2022/07/20 10:47:34;;;;;;;;;;;23.20;57.30;;;;;;5029989;28;19914;-80
2022/07/20 10:50:03;;;;;;;;;;;23.10;57.30;;;;;;5029987;28;20289;-80
2022/07/20 10:52:30;;;;;;;;;;;23.00;57.60;;;;;;5028917;28;20063;-78
2022/07/20 10:54:56;;;;;;;;;;;23.00;57.60;;;;;;5028344;28;20000;-81
2022/07/20 10:57:21;;;;;;;;;;;23.20;57.50;;;;;;5012600;28;20004;-80
2022/07/20 10:59:59;;;;;;;;;;;23.20;57.20;;;;;;5029607;28;20268;-78
2022/07/20 11:02:24;;;;;;;;;;;23.10;57.00;;;;;;5030181;28;19978;-80
2022/07/20 11:04:50;;;;;;;;;;;22.70;57.20;;;;;;5011775;28;20336;-78
2022/07/20 11:07:32;;;;;;;;;;;22.60;57.50;;;;;;5011956;28;19962;-79
2022/07/20 11:09:58;;;;;;;;;;;22.50;57.80;;;;;;5030051;28;19932;-79
2022/07/20 11:12:28;;;;;;;;;;;22.50;57.90;;;;;;5028398;28;19913;-79
2022/07/20 11:14:54;;;;;;;;;;;22.60;58.00;;;;;;5028611;28;19960;-80
2022/07/20 11:17:20;;;;;;;;;;;22.90;57.90;;;;;;5029606;28;19995;-79
2022/07/20 11:19:46;;;;;;;;;;;23.10;57.80;;;;;;5030016;28;20009;-80
2022/07/20 11:22:12;;;;;;;;;;;23.30;57.80;;;;;;5011906;28;19962;-79
2022/07/20 11:24:37;;;;;;;;;;;23.50;57.50;;;;;;5029830;28;20273;-80
2022/07/20 11:27:14;;;;;;;;;;;23.80;57.50;;;;;;5030940;28;19948;-79
2022/07/20 11:29:51;;;;;;;;;;;24.10;57.60;;;;;;5029717;28;19920;-79
2022/07/20 11:32:17;;;;;;;;;;;24.60;57.70;;;;;;5028056;28;20039;-81
2022/07/20 11:34:46;;;;;;;;;;;24.80;57.10;;;;;;5027785;28;20114;-80
2022/07/20 11:37:13;;;;;;;;;;;24.80;56.90;;;;;;5028419;28;19915;-80
2022/07/20 11:39:39;;;;;;;;;;;24.60;56.70;;;;;;5029004;28;19913;-82
2022/07/20 11:42:15;;;;;;;;;;;24.30;56.70;;;;;;5012345;28;20003;-80
2022/07/20 11:44:41;;;;;;;;;;;24.10;56.80;;;;;;5032802;28;19915;-81
2022/07/20 11:47:08;;;;;;;;;;;23.80;56.90;;;;;;5030177;28;20278;-81
2022/07/20 11:49:33;;;;;;;;;;;23.60;57.00;;;;;;5029930;28;19913;-81
2022/07/20 11:52:01;;;;;;;;;;;23.50;57.20;;;;;;5051459;28;20357;-82
2022/07/20 11:54:32;;;;;;;;;;;23.50;57.30;;;;;;5053108;28;19967;-81
2022/07/20 11:56:58;;;;;;;;;;;23.60;57.30;;;;;;5053955;28;19909;-82
2022/07/20 11:59:23;;;;;;;;;;;23.70;57.30;;;;;;5053568;28;19912;-81
2022/07/20 12:01:50;;;;;;;;;;;23.80;57.30;;;;;;5054216;28;19913;-81
2022/07/20 12:04:19;;;;;;;;;;;23.90;57.30;;;;;;5055765;28;20345;-81
2022/07/20 12:06:45;;;;;;;;;;;24.10;57.30;;;;;;5040883;28;20091;-81
2022/07/20 12:09:15;;;;;;;;;;;24.40;57.20;;;;;;5056801;28;19913;-79
2022/07/20 12:11:53;;;;;;;;;;;24.60;56.90;;;;;;5056168;28;20356;-82
2022/07/20 12:14:27;;;;;;;;;;;24.90;57.00;;;;;;5057657;28;19919;-81
2022/07/20 12:16:53;;;;;;;;;;;25.20;57.00;;;;;;5059022;28;19908;-83
2022/07/20 12:19:19;;;;;;;;;;;25.50;57.20;;;;;;5041716;28;19998;-82
2022/07/20 12:21:45;;;;;;;;;;;25.80;57.40;;;;;;5039006;28;20331;-82
2022/07/20 12:24:11;;;;;;;;;;;26.30;57.50;;;;;;5039948;28;19913;-82
2022/07/20 12:26:36;;;;;;;;;;;26.60;57.70;;;;;;5056306;28;20269;-81
2022/07/20 12:29:24;;;;;;;;;;;26.60;57.40;;;;;;5038435;28;19913;-80
2022/07/20 12:31:56;;;;;;;;;;;26.40;57.50;;;;;;5057807;28;19913;-80
2022/07/20 12:34:22;;;;;;;;;;;26.20;57.50;;;;;;5053965;28;19925;-81
2022/07/20 12:36:48;;;;;;;;;;;26.20;57.50;;;;;;5053355;28;20383;-81
2022/07/20 12:39:32;;;;;;;;;;;26.10;57.30;;;;;;5054198;28;20276;-81
2022/07/20 12:42:11;;;;;;;;;;;25.90;57.30;;;;;;5055393;28;20313;-81
2022/07/20 12:44:37;;;;;;;;;;;25.90;57.90;;;;;;5056706;28;19916;-81
2022/07/20 12:47:02;;;;;;;;;;;26.20;58.30;;;;;;5029677;28;19914;-81
2022/07/20 12:49:28;;;;;;;;;;;26.80;58.80;;;;;;5042501;28;20267;-81
2022/07/20 12:51:54;;;;;;;;;;;27.30;58.70;;;;;;5056068;28;20264;-81
2022/07/20 12:54:20;;;;;;;;;;;27.80;58.60;;;;;;5041046;28;19940;-80
2022/07/20 12:56:46;;;;;;;;;;;28.00;58.10;;;;;;5051257;28;20320;-80
2022/07/20 12:59:12;;;;;;;;;;;28.10;57.90;;;;;;5051439;28;20022;-80
2022/07/20 13:01:38;;;;;;;;;;;27.90;57.50;;;;;;5051217;28;19952;-81
2022/07/20 13:04:04;;;;;;;;;;;27.70;57.50;;;;;;5051750;28;20416;-81
2022/07/20 13:06:33;;;;;;;;;;;27.40;57.30;;;;;;5051129;28;19913;-82
2022/07/20 13:08:59;;;;;;;;;;;27.30;57.40;;;;;;5052531;28;20105;-81
2022/07/20 13:11:25;;;;;;;;;;;27.10;57.40;;;;;;5034039;28;20268;-81
2022/07/20 13:13:51;;;;;;;;;;;27.00;57.50;;;;;;5053144;28;19995;-83
2022/07/20 13:16:17;;;;;;;;;;;27.00;57.60;;;;;;5028821;28;20293;-83
2022/07/20 13:18:43;;;;;;;;;;;26.90;57.50;;;;;;5032755;28;19909;-82
2022/07/20 13:21:09;;;;;;;;;;;26.90;57.90;;;;;;5043339;28;19942;-82
2022/07/20 13:23:34;;;;;;;;;;;26.70;57.50;;;;;;5042528;28;19912;-83
2022/07/20 13:26:00;;;;;;;;;;;26.60;57.80;;;;;;5039850;28;19909;-83
2022/07/20 13:28:26;;;;;;;;;;;26.50;57.80;;;;;;5036319;28;19917;-82
2022/07/20 13:30:51;;;;;;;;;;;26.40;58.00;;;;;;5047906;28;19982;-83
2022/07/20 13:33:17;;;;;;;;;;;26.30;57.90;;;;;;5053931;28;19920;-82
2022/07/20 13:35:43;;;;;;;;;;;26.20;57.70;;;;;;5048432;28;19970;-82
2022/07/20 13:38:10;;;;;;;;;;;26.00;57.40;;;;;;5047548;28;19939;-82
2022/07/20 13:40:35;;;;;;;;;;;25.80;57.30;;;;;;5049100;28;19917;-82
2022/07/20 13:43:01;;;;;;;;;;;25.70;57.30;;;;;;5053716;28;19972;-84
2022/07/20 13:45:27;;;;;;;;;;;25.50;57.30;;;;;;5070878;28;19921;-84
2022/07/20 13:47:52;;;;;;;;;;;25.20;57.40;;;;;;5042239;28;19984;-84
2022/07/20 13:50:18;;;;;;;;;;;25.20;57.80;;;;;;5074551;28;19912;-84
2022/07/20 13:52:43;;;;;;;;;;;25.30;57.90;;;;;;5038224;28;20280;-85
2022/07/20 13:55:09;;;;;;;;;;;25.50;57.80;;;;;;5032248;28;19928;-81
2022/07/20 13:57:35;;;;;;;;;;;25.60;57.70;;;;;;5040372;28;19909;-81
2022/07/20 14:00:02;;;;;;;;;;;25.40;57.80;;;;;;5032775;28;19955;-83
2022/07/20 14:02:27;;;;;;;;;;;25.40;57.80;;;;;;5017209;28;19955;-81
2022/07/20 14:04:53;;;;;;;;;;;25.40;57.70;;;;;;5017154;28;20357;-82
2022/07/20 14:07:18;;;;;;;;;;;25.30;57.70;;;;;;5033671;28;19917;-82
2022/07/20 14:09:44;;;;;;;;;;;25.30;57.50;;;;;;5051248;28;19963;-81
2022/07/20 14:12:09;;;;;;;;;;;25.20;57.40;;;;;;5033422;28;19913;-84
2022/07/20 14:14:35;;;;;;;;;;;24.90;57.40;;;;;;5016653;28;19955;-80